Time;durP1;ratioP1;P1;durP2;ratioP2;P2;SDS_P1;SDS_P2;PMS_P1;PMS_P2;Temp;Humidity;BMP_temperature;BMP_pressure;BME280_temperature;BME280_humidity;BME280_pressure;Samples;Min_cycle;Max_cycle;Signal;HPM_P1;HPM_P2
2023/05/02 00:03:05;;;;;;;13.27;7.93;;;;;;;-143.99;100.00;64180.81;6140970;28;20608;-76
2023/05/02 00:06:27;;;;;;;8.27;7.40;;;;;;;-143.99;100.00;64180.81;6133192;28;20239;-76
2023/05/02 00:09:49;;;;;;;14.63;7.07;;;;;;;-143.99;100.00;64180.81;6129930;28;20259;-76
2023/05/02 00:13:10;;;;;;;10.93;7.73;;;;;;;-143.99;100.00;64180.81;6125731;28;20239;-76
2023/05/02 00:16:31;;;;;;;10.30;7.73;;;;;;;-143.99;100.00;64180.81;6138807;28;20235;-78
2023/05/02 00:19:52;;;;;;;10.90;7.87;;;;;;;-143.99;100.00;64180.81;6131189;28;20321;-77
2023/05/02 00:23:14;;;;;;;10.83;9.73;;;;;;;-143.99;100.00;64180.81;6137760;28;20318;-77
2023/05/02 00:26:35;;;;;;;10.13;8.30;;;;;;;-143.99;100.00;64180.81;6138558;28;20558;-76
2023/05/02 00:29:57;;;;;;;16.13;9.63;;;;;;;-143.99;100.00;64180.81;6127513;28;20230;-77
2023/05/02 00:33:18;;;;;;;11.97;9.20;;;;;;;-143.99;100.00;64180.81;6130229;28;20620;-77
2023/05/02 00:36:38;;;;;;;12.77;9.10;;;;;;;-143.99;100.00;64180.81;6123947;28;20235;-76
2023/05/02 00:40:02;;;;;;;11.30;9.07;;;;;;;-143.99;100.00;64180.81;6134457;28;20231;-78
2023/05/02 00:43:22;;;;;;;10.20;8.70;;;;;;;-143.99;100.00;64180.81;6133937;28;20223;-75
2023/05/02 00:46:43;;;;;;;9.33;8.37;;;;;;;-143.99;100.00;64180.81;6145443;28;20334;-78
2023/05/02 00:50:06;;;;;;;14.37;12.23;;;;;;;-143.99;100.00;64180.81;6136928;28;20262;-77
2023/05/02 00:53:27;;;;;;;10.77;8.67;;;;;;;-143.99;100.00;64180.81;6150939;28;20243;-76
2023/05/02 00:56:49;;;;;;;10.97;8.43;;;;;;;-143.99;100.00;64180.81;6089341;28;20219;-78
2023/05/02 01:00:12;;;;;;;16.33;9.03;;;;;;;-143.99;100.00;64180.81;6150002;28;20231;-78
2023/05/02 01:03:41;;;;;;;12.90;8.63;;;;;;;-143.99;100.00;64180.81;6134068;28;20227;-79
2023/05/02 01:07:17;;;;;;;12.80;9.10;;;;;;;-143.99;100.00;64180.81;6133653;28;20314;-79
2023/05/02 01:10:49;;;;;;;8.93;7.73;;;;;;;-143.99;100.00;64180.81;6123230;28;20243;-78
2023/05/02 01:14:12;;;;;;;11.43;8.13;;;;;;;-143.99;100.00;64180.81;6141260;28;20594;-78
2023/05/02 01:17:34;;;;;;;9.07;8.23;;;;;;;-143.99;100.00;64180.81;6133917;28;20235;-78
2023/05/02 01:21:00;;;;;;;10.73;9.50;;;;;;;-143.99;100.00;64180.81;6143705;28;20230;-76
2023/05/02 01:24:26;;;;;;;10.17;8.63;;;;;;;-143.99;100.00;64180.81;6133963;28;20238;-78
2023/05/02 01:27:56;;;;;;;11.47;9.30;;;;;;;-143.99;100.00;64180.81;6144532;28;20235;-78
2023/05/02 01:31:19;;;;;;;11.80;7.43;;;;;;;-143.99;100.00;64180.81;6123966;28;20230;-76
2023/05/02 01:34:40;;;;;;;11.20;8.67;;;;;;;-143.99;100.00;64180.81;6124430;28;20234;-77
2023/05/02 01:38:03;;;;;;;9.00;8.20;;;;;;;-143.99;100.00;64180.81;6141175;28;20776;-77
2023/05/02 01:41:26;;;;;;;8.57;7.63;;;;;;;-143.99;100.00;64180.81;6144583;28;20234;-77
2023/05/02 01:44:50;;;;;;;9.83;8.07;;;;;;;-143.99;100.00;64180.81;6144164;28;21743;-77
2023/05/02 01:48:14;;;;;;;11.93;7.90;;;;;;;-143.99;100.00;64180.81;6136236;28;20243;-77
2023/05/02 01:51:37;;;;;;;7.73;5.47;;;;;;;-143.99;100.00;64180.81;6127543;28;20239;-77
2023/05/02 01:55:00;;;;;;;9.20;6.57;;;;;;;-143.99;100.00;64180.81;6129848;28;20283;-77
2023/05/02 01:58:23;;;;;;;6.63;5.97;;;;;;;-143.99;100.00;64180.81;6143388;28;20243;-79
2023/05/02 02:01:45;;;;;;;5.80;5.30;;;;;;;-143.99;100.00;64180.81;6140449;28;20251;-78
2023/05/02 02:05:10;;;;;;;7.30;4.93;;;;;;;-143.99;100.00;64180.81;6148483;28;20309;-77
2023/05/02 02:08:31;;;;;;;8.10;6.40;;;;;;;-143.99;100.00;64180.81;6140221;28;20227;-77
2023/05/02 02:12:01;;;;;;;7.27;5.00;;;;;;;-143.99;100.00;64180.81;6126436;28;20257;-77
2023/05/02 02:15:29;;;;;;;4.83;4.33;;;;;;;-143.99;100.00;64180.81;6148755;28;20643;-77
2023/05/02 02:18:53;;;;;;;7.13;5.53;;;;;;;-143.99;100.00;64180.81;6147221;28;20262;-78
2023/05/02 02:22:19;;;;;;;6.23;5.03;;;;;;;-143.99;100.00;64180.81;6140417;28;20234;-77
2023/05/02 02:25:41;;;;;;;5.93;4.70;;;;;;;-143.99;100.00;64180.81;6142653;28;20237;-77
2023/05/02 02:29:03;;;;;;;5.20;4.73;;;;;;;-143.99;100.00;64180.81;6136444;28;20227;-77
2023/05/02 02:32:24;;;;;;;4.53;4.07;;;;;;;-143.99;100.00;64180.81;6152752;28;20235;-77
2023/05/02 02:35:53;;;;;;;4.30;3.90;;;;;;;-143.99;100.00;64180.81;6153592;28;20238;-77
2023/05/02 02:39:33;;;;;;;5.43;3.07;;;;;;;-143.99;100.00;64180.81;6134600;28;20234;-78
2023/05/02 02:43:04;;;;;;;4.80;4.33;;;;;;;-143.99;100.00;64180.81;6139186;28;20227;-77
2023/05/02 02:46:34;;;;;;;2.53;2.37;;;;;;;-143.99;100.00;64180.81;6140914;28;20226;-78
2023/05/02 02:50:16;;;;;;;2.27;2.07;;;;;;;-143.99;100.00;64180.81;6136500;28;20235;-78
2023/05/02 02:53:50;;;;;;;3.60;2.83;;;;;;;-143.99;100.00;64180.81;6137669;28;20232;-78
2023/05/02 02:57:17;;;;;;;2.57;2.33;;;;;;;-143.99;100.00;64180.81;6141534;28;20227;-77
2023/05/02 03:00:39;;;;;;;8.33;2.53;;;;;;;-143.99;100.00;64180.81;6141008;28;20264;-77
2023/05/02 03:04:03;;;;;;;4.03;3.63;;;;;;;-143.99;100.00;64180.81;6132522;28;20223;-77
2023/05/02 03:07:27;;;;;;;6.73;3.23;;;;;;;-143.99;100.00;64180.81;6135700;28;20234;-77
2023/05/02 03:10:50;;;;;;;6.10;3.03;;;;;;;-143.99;100.00;64180.81;6138094;28;20592;-78
2023/05/02 03:14:13;;;;;;;7.90;2.40;;;;;;;-143.99;100.00;64180.81;6150081;28;20247;-77
2023/05/02 03:17:35;;;;;;;7.20;2.37;;;;;;;-143.99;100.00;64180.81;6143537;28;26168;-77
2023/05/02 03:20:55;;;;;;;4.40;3.27;;;;;;;-143.99;100.00;64180.81;6139694;28;20230;-78
2023/05/02 03:24:17;;;;;;;2.37;1.63;;;;;;;-143.99;100.00;64180.81;6132377;28;20234;-78
2023/05/02 03:27:38;;;;;;;3.63;2.70;;;;;;;-143.99;100.00;64180.81;6135319;28;20243;-78
2023/05/02 03:31:04;;;;;;;12.63;2.70;;;;;;;-143.99;100.00;64180.81;6148211;28;20536;-78
2023/05/02 03:34:29;;;;;;;7.00;2.73;;;;;;;-143.99;100.00;64180.81;6135551;28;20271;-78
2023/05/02 03:37:51;;;;;;;5.23;3.03;;;;;;;-143.99;100.00;64180.81;6136187;28;20227;-79
2023/05/02 03:41:12;;;;;;;10.73;3.77;;;;;;;-143.99;100.00;64180.81;6149231;28;20354;-78
2023/05/02 03:44:35;;;;;;;10.20;2.73;;;;;;;-143.99;100.00;64180.81;6145107;28;20293;-78
2023/05/02 03:47:57;;;;;;;6.43;3.43;;;;;;;-143.99;100.00;64180.81;6148740;28;20231;-78
2023/05/02 03:51:19;;;;;;;3.10;2.73;;;;;;;-143.99;100.00;64180.81;6134271;28;20596;-78
2023/05/02 03:54:45;;;;;;;6.63;3.87;;;;;;;-143.99;100.00;64180.81;6145553;28;20231;-78
2023/05/02 03:58:06;;;;;;;9.80;4.70;;;;;;;-143.99;100.00;64180.81;6137136;28;20243;-78
2023/05/02 04:01:28;;;;;;;7.33;3.47;;;;;;;-143.99;100.00;64180.81;6130621;28;20251;-78
2023/05/02 04:04:52;;;;;;;5.53;3.23;;;;;;;-143.99;100.00;64180.81;6146776;28;22814;-78
2023/05/02 04:08:16;;;;;;;10.87;4.80;;;;;;;-143.99;100.00;64180.81;6132597;28;20231;-78
2023/05/02 04:11:38;;;;;;;5.40;3.23;;;;;;;-143.99;100.00;64180.81;6146679;28;20318;-78
2023/05/02 04:15:00;;;;;;;6.20;2.33;;;;;;;-143.99;100.00;64180.81;6144365;28;20231;-78
2023/05/02 04:18:23;;;;;;;6.90;3.17;;;;;;;-143.99;100.00;64180.81;6143094;28;20231;-78
2023/05/02 04:21:47;;;;;;;4.47;2.90;;;;;;;-143.99;100.00;64180.81;6132327;28;20235;-77
2023/05/02 04:25:09;;;;;;;4.27;2.70;;;;;;;-143.99;100.00;64180.81;6150711;28;20504;-78
2023/05/02 04:28:32;;;;;;;2.90;2.40;;;;;;;-143.99;100.00;64180.81;6140810;28;20512;-78
2023/05/02 04:31:54;;;;;;;7.20;2.30;;;;;;;-143.99;100.00;64180.81;6115885;28;20278;-78
2023/05/02 04:35:19;;;;;;;4.97;2.10;;;;;;;-143.99;100.00;64180.81;6148134;28;20230;-78
2023/05/02 04:38:42;;;;;;;6.20;2.60;;;;;;;-143.99;100.00;64180.81;6149988;28;20497;-78
2023/05/02 04:42:03;;;;;;;9.60;3.70;;;;;;;-143.99;100.00;64180.81;6137697;28;20235;-78
2023/05/02 04:45:28;;;;;;;6.40;3.50;;;;;;;-143.99;100.00;64180.81;6135379;28;20242;-79
2023/05/02 04:48:49;;;;;;;5.43;2.20;;;;;;;-143.99;100.00;64180.81;6127958;28;20317;-74
2023/05/02 04:52:10;;;;;;;6.40;2.80;;;;;;;-143.99;100.00;64180.81;6133341;28;20231;-70
2023/05/02 04:55:33;;;;;;;5.57;2.40;;;;;;;-143.99;100.00;64180.81;6128361;28;20234;-80
2023/05/02 04:58:54;;;;;;;7.77;2.20;;;;;;;-143.99;100.00;64180.81;6127639;28;20499;-81
2023/05/02 05:02:16;;;;;;;7.80;2.60;;;;;;;-143.99;100.00;64180.81;6126986;28;20245;-81
2023/05/02 05:05:38;;;;;;;8.60;3.40;;;;;;;-143.99;100.00;64180.81;6132838;28;20796;-81
2023/05/02 05:09:02;;;;;;;3.03;2.47;;;;;;;-143.99;100.00;64180.81;6129558;28;20317;-82
2023/05/02 05:12:25;;;;;;;4.07;2.77;;;;;;;-143.99;100.00;64180.81;6133643;28;20254;-82
2023/05/02 05:15:47;;;;;;;8.87;2.50;;;;;;;-143.99;100.00;64180.81;6151479;28;20620;-82
2023/05/02 05:19:11;;;;;;;9.03;3.83;;;;;;;-143.99;100.00;64180.81;6125478;28;20259;-82
2023/05/02 05:22:38;;;;;;;4.87;2.37;;;;;;;-143.99;100.00;64180.81;6133139;28;20273;-83
2023/05/02 05:26:08;;;;;;;10.20;3.03;;;;;;;-143.99;100.00;64180.81;6130779;28;20549;-82
2023/05/02 05:29:32;;;;;;;18.40;4.27;;;;;;;-143.99;100.00;64180.81;6143272;28;20313;-82
2023/05/02 05:32:55;;;;;;;4.00;2.07;;;;;;;-143.99;100.00;64180.81;6137613;28;20315;-81
2023/05/02 05:36:16;;;;;;;5.40;3.13;;;;;;;-143.99;100.00;64180.81;6138948;28;20231;-80
2023/05/02 05:39:37;;;;;;;5.00;2.73;;;;;;;-143.99;100.00;64180.81;6129181;28;20234;-81
2023/05/02 05:42:59;;;;;;;4.00;2.50;;;;;;;-143.99;100.00;64180.81;6124736;28;20231;-83
2023/05/02 05:46:27;;;;;;;5.53;2.23;;;;;;;-143.99;100.00;64180.81;6140251;28;20231;-81
2023/05/02 05:49:52;;;;;;;4.53;2.50;;;;;;;-143.99;100.00;64180.81;6139953;28;20317;-82
2023/05/02 05:53:14;;;;;;;2.57;2.37;;;;;;;-143.99;100.00;64180.81;6140820;28;20231;-81
2023/05/02 05:56:38;;;;;;;4.73;2.60;;;;;;;-143.99;100.00;64180.81;6128323;28;20247;-82
2023/05/02 06:00:09;;;;;;;8.10;3.20;;;;;;;-143.99;100.00;64180.81;6136959;28;20663;-80
2023/05/02 06:03:37;;;;;;;3.57;2.23;;;;;;;-143.99;100.00;64180.81;6141712;28;20261;-82
2023/05/02 06:06:59;;;;;;;3.53;2.43;;;;;;;-143.99;100.00;64180.81;6145371;28;20234;-82
2023/05/02 06:10:20;;;;;;;5.40;1.83;;;;;;;-143.99;100.00;64180.81;6155628;28;20234;-82
2023/05/02 06:13:41;;;;;;;6.57;2.40;;;;;;;-143.99;100.00;64180.81;6140667;28;20289;-81
2023/05/02 06:17:02;;;;;;;4.13;2.13;;;;;;;-143.99;100.00;64180.81;6138228;28;20238;-82
2023/05/02 06:20:25;;;;;;;6.47;3.40;;;;;;;-143.99;100.00;64180.81;6137479;28;20221;-82
2023/05/02 06:23:46;;;;;;;5.87;4.07;;;;;;;-143.99;100.00;64180.81;6141211;28;20539;-80
2023/05/02 06:27:07;;;;;;;7.23;2.40;;;;;;;-143.99;100.00;64180.81;6132272;28;20242;-82
2023/05/02 06:30:28;;;;;;;10.90;2.17;;;;;;;-143.99;100.00;64180.81;6138012;28;20234;-82
2023/05/02 06:33:50;;;;;;;2.87;2.20;;;;;;;-143.99;100.00;64180.81;6142512;28;20227;-82
2023/05/02 06:37:12;;;;;;;2.73;2.10;;;;;;;-143.99;100.00;64180.81;6138191;28;21119;-81
2023/05/02 06:40:35;;;;;;;3.13;2.83;;;;;;;-143.99;100.00;64180.81;6134974;28;20235;-80
2023/05/02 06:43:56;;;;;;;6.70;2.70;;;;;;;-143.99;100.00;64180.81;6123147;28;20605;-80
2023/05/02 06:47:17;;;;;;;5.07;3.07;;;;;;;-143.99;100.00;64180.81;6149504;28;20235;-82
2023/05/02 06:50:38;;;;;;;6.77;2.50;;;;;;;-143.99;100.00;64180.81;6141918;28;20239;-81
2023/05/02 06:54:00;;;;;;;7.77;2.70;;;;;;;-143.99;100.00;64180.81;6131107;28;20235;-83
2023/05/02 06:57:21;;;;;;;2.00;1.70;;;;;;;-143.99;100.00;64180.81;6155855;28;20503;-81
2023/05/02 07:00:42;;;;;;;1.83;1.63;;;;;;;-143.99;100.00;64180.81;6143611;28;20254;-81
2023/05/02 07:04:04;;;;;;;5.17;2.43;;;;;;;-143.99;100.00;64180.81;6138243;28;21000;-82
2023/05/02 07:07:25;;;;;;;2.00;1.90;;;;;;;-143.99;100.00;64180.81;6145767;28;20231;-82
2023/05/02 07:10:47;;;;;;;2.70;1.93;;;;;;;-143.99;100.00;64180.81;6144465;28;20231;-81
2023/05/02 07:14:08;;;;;;;4.33;1.90;;;;;;;-143.99;100.00;64180.81;6133340;28;20239;-79
2023/05/02 07:17:29;;;;;;;4.73;2.57;;;;;;;-143.99;100.00;64180.81;6150675;28;20247;-82
2023/05/02 07:20:50;;;;;;;2.87;2.30;;;;;;;-143.99;100.00;64180.81;6149638;28;20238;-82
2023/05/02 07:24:11;;;;;;;6.67;2.70;;;;;;;-143.99;100.00;64180.81;6137234;28;20542;-82
2023/05/02 07:27:33;;;;;;;6.07;1.93;;;;;;;-143.99;100.00;64180.81;6155702;28;20239;-82
2023/05/02 07:30:54;;;;;;;2.10;1.33;;;;;;;-143.99;100.00;64180.81;6139338;28;20329;-82
2023/05/02 07:34:14;;;;;;;2.33;1.43;;;;;;;-143.99;100.00;64180.81;6132804;28;20231;-83
2023/05/02 07:37:35;;;;;;;1.10;1.10;;;;;;;-143.99;100.00;64180.81;6147133;28;20603;-82
2023/05/02 07:40:58;;;;;;;2.50;1.50;;;;;;;-143.99;100.00;64180.81;6140529;28;20227;-82
2023/05/02 07:44:21;;;;;;;2.37;1.60;;;;;;;-143.99;100.00;64180.81;6133555;28;20238;-82
2023/05/02 07:47:42;;;;;;;1.33;1.23;;;;;;;-143.99;100.00;64180.81;6150338;28;20531;-82
2023/05/02 07:51:06;;;;;;;1.27;1.03;;;;;;;-143.99;100.00;64180.81;6142385;28;20234;-82
2023/05/02 07:54:27;;;;;;;1.70;1.33;;;;;;;-143.99;100.00;64180.81;6127115;28;20222;-82
2023/05/02 07:57:48;;;;;;;2.10;1.13;;;;;;;-143.99;100.00;64180.81;6147825;28;20227;-82
2023/05/02 08:01:11;;;;;;;2.70;2.43;;;;;;;-143.99;100.00;64180.81;6143649;28;20667;-80
2023/05/02 08:04:32;;;;;;;2.23;1.50;;;;;;;-143.99;100.00;64180.81;6144688;28;20234;-81
2023/05/02 08:07:53;;;;;;;2.57;1.63;;;;;;;-143.99;100.00;64180.81;6144793;28;20263;-81
2023/05/02 08:11:14;;;;;;;4.57;2.20;;;;;;;-143.99;100.00;64180.81;6146271;28;20258;-81
2023/05/02 08:14:35;;;;;;;3.90;2.40;;;;;;;-143.99;100.00;64180.81;6135155;28;20242;-81
2023/05/02 08:17:58;;;;;;;2.07;1.87;;;;;;;-143.99;100.00;64180.81;6144568;28;20239;-81
2023/05/02 08:21:19;;;;;;;3.43;1.30;;;;;;;-143.99;100.00;64180.81;6139628;28;20230;-82
2023/05/02 08:24:39;;;;;;;2.40;1.73;;;;;;;-143.99;100.00;64180.81;6138241;28;20254;-81
2023/05/02 08:28:00;;;;;;;1.70;0.90;;;;;;;-143.99;100.00;64180.81;6147400;28;20235;-82
2023/05/02 08:31:21;;;;;;;6.33;2.37;;;;;;;-143.99;100.00;64180.81;6152117;28;20354;-82
2023/05/02 08:34:43;;;;;;;2.23;1.50;;;;;;;-143.99;100.00;64180.81;6137797;28;20251;-82
2023/05/02 08:38:04;;;;;;;3.27;2.53;;;;;;;-143.99;100.00;64180.81;6149680;28;20238;-81
2023/05/02 08:41:28;;;;;;;6.13;1.10;;;;;;;-143.99;100.00;64180.81;6143337;28;20231;-81
2023/05/02 08:44:49;;;;;;;3.00;1.40;;;;;;;-143.99;100.00;64180.81;6142425;28;20318;-81
2023/05/02 08:48:12;;;;;;;3.00;1.40;;;;;;;-143.99;100.00;64180.81;6143026;28;20247;-82
2023/05/02 08:51:36;;;;;;;3.33;1.23;;;;;;;-143.99;100.00;64180.81;6143638;28;20231;-83
2023/05/02 08:54:57;;;;;;;1.40;1.30;;;;;;;-143.99;100.00;64180.81;6135791;28;20241;-82
2023/05/02 08:58:18;;;;;;;3.93;1.73;;;;;;;-143.99;100.00;64180.81;6134025;28;20215;-82
2023/05/02 09:01:46;;;;;;;2.43;1.63;;;;;;;-143.99;100.00;64180.81;6151332;28;20470;-82
2023/05/02 09:05:09;;;;;;;2.83;1.53;;;;;;;-143.99;100.00;64180.81;6134779;28;20238;-81
2023/05/02 09:08:32;;;;;;;1.73;1.43;;;;;;;-143.99;100.00;64180.81;6138517;28;20243;-81
2023/05/02 09:11:53;;;;;;;2.53;2.17;;;;;;;-143.99;100.00;64180.81;6118211;28;20239;-80
2023/05/02 09:15:15;;;;;;;9.53;2.53;;;;;;;-143.99;100.00;64180.81;6119539;28;20226;-81
2023/05/02 09:18:38;;;;;;;5.90;3.40;;;;;;;-143.99;100.00;64180.81;6140430;28;20227;-82
2023/05/02 09:22:02;;;;;;;4.33;1.90;;;;;;;-143.99;100.00;64180.81;6139645;28;20227;-82
2023/05/02 09:25:24;;;;;;;1.80;1.70;;;;;;;-143.99;100.00;64180.81;6137681;28;20496;-82
2023/05/02 09:28:47;;;;;;;2.70;1.27;;;;;;;-143.99;100.00;64180.81;6142058;28;20339;-81
2023/05/02 09:32:08;;;;;;;1.57;1.47;;;;;;;-143.99;100.00;64180.81;6152722;28;20540;-82
2023/05/02 09:35:29;;;;;;;1.63;1.53;;;;;;;-143.99;100.00;64180.81;6138822;28;20234;-82
2023/05/02 09:38:50;;;;;;;1.63;1.17;;;;;;;-143.99;100.00;64180.81;6138359;28;20309;-80
2023/05/02 09:42:13;;;;;;;3.60;1.13;;;;;;;-143.99;100.00;64180.81;6159241;28;20249;-82
2023/05/02 09:45:34;;;;;;;4.80;2.10;;;;;;;-143.99;100.00;64180.81;6137470;28;20226;-81
2023/05/02 09:48:56;;;;;;;4.53;1.03;;;;;;;-143.99;100.00;64180.81;6126468;28;20235;-80
2023/05/02 09:52:18;;;;;;;2.10;1.63;;;;;;;-143.99;100.00;64180.81;6131260;28;20636;-81
2023/05/02 09:55:39;;;;;;;1.50;1.40;;;;;;;-143.99;100.00;64180.81;6145732;28;20235;-81
2023/05/02 09:59:16;;;;;;;1.73;1.00;;;;;;;-143.99;100.00;64180.81;6130097;28;20235;-83
2023/05/02 10:02:37;;;;;;;0.90;0.90;;;;;;;-143.99;100.00;64180.81;6141730;28;22398;-83
2023/05/02 10:05:58;;;;;;;2.40;1.30;;;;;;;-143.99;100.00;64180.81;6147883;28;20230;-82
2023/05/02 10:09:20;;;;;;;2.77;0.80;;;;;;;-143.99;100.00;64180.81;6149105;28;20738;-81
2023/05/02 10:12:41;;;;;;;1.93;1.70;;;;;;;-143.99;100.00;64180.81;6138175;28;20223;-82
2023/05/02 10:16:05;;;;;;;1.50;1.40;;;;;;;-143.99;100.00;64180.81;6140530;28;20307;-80
2023/05/02 10:19:32;;;;;;;2.57;1.27;;;;;;;-143.99;100.00;64180.81;6133246;28;20226;-80
2023/05/02 10:22:54;;;;;;;2.93;1.33;;;;;;;-143.99;100.00;64180.81;6146479;28;20251;-79
2023/05/02 10:26:15;;;;;;;0.93;0.93;;;;;;;-143.99;100.00;64180.81;6137346;28;20736;-81
2023/05/02 10:29:39;;;;;;;4.73;1.93;;;;;;;-143.99;100.00;64180.81;6140524;28;20230;-81
2023/05/02 10:33:02;;;;;;;1.67;1.57;;;;;;;-143.99;100.00;64180.81;6147258;28;20235;-83
2023/05/02 10:36:23;;;;;;;1.50;1.40;;;;;;;-143.99;100.00;64180.81;6134597;28;20234;-81
2023/05/02 10:39:45;;;;;;;5.00;1.40;;;;;;;-143.99;100.00;64180.81;6138969;28;20569;-81
2023/05/02 10:43:07;;;;;;;1.50;1.27;;;;;;;-143.99;100.00;64180.81;6145498;28;20227;-81
2023/05/02 10:46:32;;;;;;;3.17;1.77;;;;;;;-143.99;100.00;64180.81;6149560;28;20322;-81
2023/05/02 10:49:56;;;;;;;1.97;1.37;;;;;;;-143.99;100.00;64180.81;6138585;28;20234;-81
2023/05/02 10:53:43;;;;;;;1.37;0.60;;;;;;;-143.99;100.00;64180.81;6142469;28;20231;-82
2023/05/02 10:57:06;;;;;;;3.37;1.30;;;;;;;-143.99;100.00;64180.81;6140912;28;20321;-81
2023/05/02 11:00:29;;;;;;;2.37;2.17;;;;;;;-143.99;100.00;64180.81;6138567;28;20227;-81
2023/05/02 11:03:54;;;;;;;4.57;2.83;;;;;;;-143.99;100.00;64180.81;6137452;28;20496;-81
2023/05/02 11:07:19;;;;;;;2.50;0.70;;;;;;;-143.99;100.00;64180.81;6138561;28;20239;-83
2023/05/02 11:10:41;;;;;;;1.10;0.90;;;;;;;-143.99;100.00;64180.81;6137312;28;20576;-81
2023/05/02 11:14:02;;;;;;;1.73;1.40;;;;;;;-143.99;100.00;64180.81;6126742;28;20506;-81
2023/05/02 11:17:23;;;;;;;2.40;1.17;;;;;;;-143.99;100.00;64180.81;6141745;28;20351;-82
2023/05/02 11:20:45;;;;;;;1.70;1.37;;;;;;;-143.99;100.00;64180.81;6143922;28;20230;-83
2023/05/02 11:24:38;;;;;;;1.37;1.17;;;;;;;-143.99;100.00;64180.81;6144327;28;20235;-80
2023/05/02 11:28:00;;;;;;;4.17;1.87;;;;;;;-143.99;100.00;64180.81;6140769;28;20259;-80
2023/05/02 11:32:03;;;;;;;1.50;1.10;;;;;;;-143.99;100.00;64180.81;6154031;28;20231;-80
2023/05/02 11:35:26;;;;;;;0.90;0.90;;;;;;;-143.99;100.00;64180.81;6145697;28;20234;-80
2023/05/02 11:38:47;;;;;;;2.73;1.80;;;;;;;-143.99;100.00;64180.81;6133549;28;20309;-81
2023/05/02 11:42:09;;;;;;;4.07;2.40;;;;;;;-143.99;100.00;64180.81;6136580;28;20317;-80
2023/05/02 11:45:35;;;;;;;5.93;1.90;;;;;;;-143.99;100.00;64180.81;6151631;28;20257;-79
2023/05/02 11:48:56;;;;;;;3.43;1.10;;;;;;;-143.99;100.00;64180.81;6131262;28;20242;-79
2023/05/02 11:52:16;;;;;;;1.00;1.00;;;;;;;-143.99;100.00;64180.81;6155517;28;20251;-81
2023/05/02 11:55:38;;;;;;;1.60;0.87;;;;;;;-143.99;100.00;64180.81;6143421;28;20317;-81
2023/05/02 11:59:01;;;;;;;1.23;0.97;;;;;;;-143.99;100.00;64180.81;6135214;28;20231;-81
2023/05/02 12:02:36;;;;;;;1.53;1.43;;;;;;;-143.99;100.00;64180.81;6156167;28;20324;-80
2023/05/02 12:05:58;;;;;;;0.83;0.73;;;;;;;-143.99;100.00;64180.81;6140497;28;20560;-81
2023/05/02 12:09:20;;;;;;;2.60;1.43;;;;;;;-143.99;100.00;64180.81;6135598;28;20235;-81
2023/05/02 12:12:43;;;;;;;1.50;0.90;;;;;;;-143.99;100.00;64180.81;6155060;28;20351;-80
2023/05/02 12:16:07;;;;;;;1.00;1.00;;;;;;;-143.99;100.00;64180.81;6138658;28;20223;-80
2023/05/02 12:19:28;;;;;;;1.20;1.10;;;;;;;-143.99;100.00;64180.81;6132330;28;20227;-80
2023/05/02 12:22:49;;;;;;;0.83;0.70;;;;;;;-143.99;100.00;64180.81;6147343;28;20263;-80
2023/05/02 12:26:17;;;;;;;1.33;1.23;;;;;;;-143.99;100.00;64180.81;6142967;28;20605;-79
2023/05/02 12:29:39;;;;;;;1.77;1.63;;;;;;;-143.99;100.00;64180.81;6135005;28;20246;-81
2023/05/02 12:33:02;;;;;;;1.50;1.40;;;;;;;-143.99;100.00;64180.81;6146953;28;20246;-80
2023/05/02 12:36:24;;;;;;;1.67;1.03;;;;;;;-143.99;100.00;64180.81;6141931;28;20231;-81
2023/05/02 12:39:45;;;;;;;1.23;0.90;;;;;;;-143.99;100.00;64180.81;6134300;28;20747;-81
2023/05/02 12:43:09;;;;;;;2.00;1.00;;;;;;;-143.99;100.00;64180.81;6140591;28;20235;-80
2023/05/02 12:46:30;;;;;;;2.13;1.43;;;;;;;-143.99;100.00;64180.81;6152869;28;20233;-80
2023/05/02 12:49:55;;;;;;;1.27;1.20;;;;;;;-143.99;100.00;64180.81;6139510;28;20234;-80
2023/05/02 12:53:16;;;;;;;1.63;1.53;;;;;;;-143.99;100.00;64180.81;6145113;28;20243;-80
2023/05/02 12:56:42;;;;;;;0.83;0.70;;;;;;;-143.99;100.00;64180.81;6144073;28;20239;-79
2023/05/02 13:00:04;;;;;;;2.63;0.83;;;;;;;-143.99;100.00;64180.81;6144725;28;20254;-79
2023/05/02 13:03:26;;;;;;;3.50;1.53;;;;;;;-143.99;100.00;64180.81;6141810;28;20231;-81
2023/05/02 13:06:49;;;;;;;0.80;0.60;;;;;;;-143.99;100.00;64180.81;6138758;28;20297;-81
2023/05/02 13:10:11;;;;;;;1.27;1.17;;;;;;;-143.99;100.00;64180.81;6141105;28;20288;-81
2023/05/02 13:13:33;;;;;;;1.30;1.30;;;;;;;-143.99;100.00;64180.81;6148926;28;20676;-80
2023/05/02 13:16:54;;;;;;;1.67;1.57;;;;;;;-143.99;100.00;64180.81;6123030;28;20321;-80
2023/05/02 13:20:15;;;;;;;6.00;1.60;;;;;;;-143.99;100.00;64180.81;6144074;28;20234;-80
2023/05/02 13:23:38;;;;;;;3.60;1.83;;;;;;;-143.99;100.00;64180.81;6144377;28;20235;-80
2023/05/02 13:26:59;;;;;;;1.73;1.53;;;;;;;-143.99;100.00;64180.81;6147616;28;20226;-82
2023/05/02 13:30:20;;;;;;;3.20;1.10;;;;;;;-143.99;100.00;64180.81;6147981;28;20234;-80
2023/05/02 13:33:41;;;;;;;7.37;1.73;;;;;;;-143.99;100.00;64180.81;6146096;28;20227;-80
2023/05/02 13:37:02;;;;;;;3.33;1.20;;;;;;;-143.99;100.00;64180.81;6139519;28;20511;-81
2023/05/02 13:40:24;;;;;;;4.33;2.87;;;;;;;-143.99;100.00;64180.81;6135973;28;20227;-81
2023/05/02 13:43:46;;;;;;;2.27;1.17;;;;;;;-143.99;100.00;64180.81;6145781;28;20247;-81
2023/05/02 13:47:07;;;;;;;0.70;0.70;;;;;;;-143.99;100.00;64180.81;6140143;28;20227;-82
2023/05/02 13:50:28;;;;;;;2.90;1.00;;;;;;;-143.99;100.00;64180.81;6142024;28;20238;-80
2023/05/02 13:53:48;;;;;;;4.73;2.20;;;;;;;-143.99;100.00;64180.81;6146646;28;20235;-79
2023/05/02 13:57:10;;;;;;;2.27;0.90;;;;;;;-143.99;100.00;64180.81;6139091;28;20231;-80
2023/05/02 14:00:31;;;;;;;5.07;1.70;;;;;;;-143.99;100.00;64180.81;6136809;28;20309;-82
2023/05/02 14:03:52;;;;;;;6.03;2.23;;;;;;;-143.99;100.00;64180.81;6143545;28;20609;-80
2023/05/02 14:07:13;;;;;;;2.13;1.93;;;;;;;-143.99;100.00;64180.81;6139211;28;20588;-80
2023/05/02 14:10:36;;;;;;;2.63;1.50;;;;;;;-143.99;100.00;64180.81;6143031;28;20235;-80
2023/05/02 14:13:59;;;;;;;3.30;1.70;;;;;;;-143.99;100.00;64180.81;6137540;28;20226;-78
2023/05/02 14:17:23;;;;;;;1.40;0.90;;;;;;;-143.99;100.00;64180.81;6136353;28;20263;-79
2023/05/02 14:20:45;;;;;;;2.57;1.80;;;;;;;-143.99;100.00;64180.81;6142328;28;20235;-79
2023/05/02 14:24:06;;;;;;;5.57;1.53;;;;;;;-143.99;100.00;64180.81;6121791;28;20235;-80
2023/05/02 14:27:27;;;;;;;1.97;1.63;;;;;;;-143.99;100.00;64180.81;6158025;28;20227;-81
2023/05/02 14:30:52;;;;;;;0.97;0.97;;;;;;;-143.99;100.00;64180.81;6148121;28;20234;-79
2023/05/02 14:34:13;;;;;;;5.10;1.63;;;;;;;-143.99;100.00;64180.81;6131111;28;20778;-81
2023/05/02 14:37:34;;;;;;;1.60;1.40;;;;;;;-143.99;100.00;64180.81;6158323;28;20228;-81
2023/05/02 14:40:55;;;;;;;2.23;1.10;;;;;;;-143.99;100.00;64180.81;6145295;28;20230;-81
2023/05/02 14:44:17;;;;;;;1.50;1.40;;;;;;;-143.99;100.00;64180.81;6128833;28;20234;-80
2023/05/02 14:47:39;;;;;;;3.17;1.30;;;;;;;-143.99;100.00;64180.81;6150862;28;20661;-81
2023/05/02 14:51:03;;;;;;;6.83;1.60;;;;;;;-143.99;100.00;64180.81;6151070;28;20241;-77
2023/05/02 14:54:27;;;;;;;1.47;1.37;;;;;;;-143.99;100.00;64180.81;6138228;28;20223;-78
2023/05/02 14:57:48;;;;;;;1.23;0.60;;;;;;;-143.99;100.00;64180.81;6139360;28;20237;-77
2023/05/02 15:01:15;;;;;;;2.93;1.43;;;;;;;-143.99;100.00;64180.81;6140156;28;20297;-77
2023/05/02 15:04:37;;;;;;;1.23;1.13;;;;;;;-143.99;100.00;64180.81;6126884;28;20230;-76
2023/05/02 15:07:59;;;;;;;6.90;1.63;;;;;;;-143.99;100.00;64180.81;6110153;28;20231;-77
2023/05/02 15:11:19;;;;;;;1.50;1.40;;;;;;;-143.99;100.00;64180.81;6079874;28;20484;-78
2023/05/02 15:14:40;;;;;;;2.07;0.97;;;;;;;-143.99;100.00;64180.81;6062928;28;20226;-77
2023/05/02 15:18:01;;;;;;;0.90;0.87;;;;;;;-143.99;100.00;64180.81;6066134;28;21439;-76
2023/05/02 15:21:23;;;;;;;2.33;1.20;;;;;;;-143.99;100.00;64180.81;6069645;28;20306;-78
2023/05/02 15:24:44;;;;;;;2.40;1.23;;;;;;;-143.99;100.00;64180.81;6068565;28;20637;-77